Предлагаем Вашему вниманию английскую версию страницы: AUTOTAF.ME UOIG - aviation weather forecast Svetlogorsk

AUTOTAF UOIG - авиапрогноз Светлогорск

Сегодня рассвет 02:21 UTC, восход солнца 03:32 UTC,
местный полдень 06:18 UTC, заход солнца 09:05 UTC,
наступление темноты 10:16 UTC.

Краткий прогноз UOIG на 9 часов

AUTOTAF.ME UOIG 262000Z 2621/2706 09004MPS CAVOK      
  FM270600 10010G17MPS 2000 BLSN NSC

Детальный прогноз UOIG на 24 часа

AUTOTAF.ME UOIG 262000Z 2621/2721 09004MPS 9999 OVC090 TXM36/2709Z TNM41/2621Z    
  FM270600 10010G17MPS 2000 BLSN SKC 
  FM270900 10009G17MPS 9999 DRSN SKC  
  FM271500 11006G13MPS 9999 SKC 
  BECMG 2716/2718 09003MPS  
  FM272100 08003MPS 1000 BR SKC

Подробный табличный прогноз

Время (UTC) miniAUTOTAF на 3 ч WX FZLVL
M AGL
ICE TURB Т
(°С)
Тd
(°С)
f(%) QNH
(гПа)
WIND/T
18 08004MPS 9999 OVC110 SFC MOD FL20/FL30 -43 -48 63 1034 ...
21 09004MPS 9999 OVC090 SFC MOD SFC/FL20 -41 -45 64 1031 ...
27.01.2021
00 08005G12MPS 9999 SKC SFC MOD SFC/FL30 -39 -43 63 1029 ...
03 09006G14MPS 9999 SKC SFC MOD SFC/FL30 -38 -42 62 1026 ...
06 10010G17MPS 2000 BLSN SKC BLSN SFC MOD SFC/FL20 -37 -42 62 1025 ...
09 10009G17MPS 9999 DRSN SKC DRSN SFC MOD SFC/FL20 -36 -41 62 1024 ...
12 11010G17MPS 9999 DRSN SKC DRSN SFC MOD SFC/FL20 -36 -41 61 1024 ...
15 11006G13MPS 9999 SKC SFC MOD SFC/FL30 -36 -41 61 1023 ...
18 09003MPS 9999 SKC SFC MOD SFC/FL20 -37 -42 63 1024 ...
21 08003MPS 1000 BR SKC BR SFC -41 -45 66 1025 ...
28.01.2021
00 VRB02MPS 1000 BR FEW190 BR SFC -44 -48 64 1028 ...
03 VRB02MPS 0500 FG IC SKC FG IC SFC -45 -49 63 1029 ...
06 VRB02MPS 0500 FG IC SKC FG IC SFC -45 -50 63 1031 ...
09 VRB02MPS 1000 BR SKC BR SFC -46 -50 63 1032 ...
12 VRB02MPS 1000 BR SKC BR SFC -46 -50 64 1033 ...
15 07003MPS 1000 BR SKC BR SFC -46 -50 63 1033 ...


Широта 66.84028°, долгота 88.40273°, высота 122 м абс.
Средняя высота рельефа местности 162 м абс.
Прогнозы обновляются четыре раза в сутки: в 02, 08, 14, 20 ч всемирного времени.


Выбрать прогноз по другой модели Светлогорск
Онлайн-сводка гроз по Светлогорск (для РФ и ближнего зарубежья)
Карта фактических гроз в окрестностях Светлогорск
Динамические прогностические карты (ventusky.com)
Прогностическая карта высоты нижней границы облаков по Светлогорск (windy.com)
Выбрать другой город

Прогноз предназначен для личного научно-познавательного использования частными лицами
и не предназначен для принятия важных решений и выполнения реальных полётов воздушных судов

При копировании или ином использовании любых материалов данного сайта ссылка на © meteocenter.asia обязательна.

0.68/1.1